Kyokusho Maru — JL6605 — position and weather

sailwx.info

Track history (hours):
 
Tides and Currents Weather Stations Pressure Air Temp Water Temp Dewpoint Dewpoint Depression Visibility Wind Speed Wind Dir Waves Ship Positions

Kyokusho Maru

Last reported at 2014-Dec-19 21:32 UTC. Time now 2014-Dec-19 21:37 UTC.
Position N 34°09' E 135°09'.

Length 77 m; draft 5 m.

Type: Tanker. MMSI: 431501667.

Date/timePositionNaut miles runAvg speedWind from/ knotsBaromVisibWave heightAir tempDewpointWater temp
2014-Dec-19 21:32N 34°09' E 135°09'0 0.0
2014-Dec-19 20:29N 34°09' E 135°09'0 0.0
2014-Dec-19 19:32N 34°09' E 135°09'3 2.7
2014-Dec-19 18:33N 34°09' E 135°05'1311.9
2014-Dec-19 17:26N 34°08' E 134°49'  
2014-Dec-14 13:24N 34°36' E 134°55'7 8.2
2014-Dec-14 12:33N 34°36' E 135°03'10 9.8
2014-Dec-14 11:33N 34°36' E 135°15'9 8.7
2014-Dec-14 10:33N 34°34' E 135°26'0 0.0
2014-Dec-14 04:22N 34°34' E 135°26'5 5.8
2014-Dec-14 03:33N 34°35' E 135°20'2 0.4
2014-Dec-13 23:14N 34°35' E 135°18'0 0.0
2014-Dec-13 22:32N 34°35' E 135°18'0 0.0
2014-Dec-13 21:26N 34°35' E 135°18'0 0.0
2014-Dec-13 20:08N 34°35' E 135°18'0 0.0
2014-Dec-13 19:20N 34°35' E 135°18'0 0.0
2014-Dec-13 18:26N 34°35' E 135°18'1 0.3
2014-Dec-13 13:33N 34°34' E 135°16'1312.7
2014-Dec-13 12:33N 34°37' E 135°01'  
Track history (hours):
 
Tides and Currents Weather Stations Pressure Air Temp Water Temp Dewpoint Dewpoint Depression Visibility Wind Speed Wind Dir Waves Ship Positions

Kyokusho Maru

Last reported at 2014-Dec-19 21:32 UTC. Time now 2014-Dec-19 21:37 UTC.
Position N 34°09' E 135°09'.

Length 77 m; draft 5 m.

Type: Tanker. MMSI: 431501667.

Date/timePositionNaut miles runAvg speedWind from/ knotsBaromVisibWave heightAir tempDewpointWater temp
2014-Dec-19 21:32N 34°09' E 135°09'0 0.0
2014-Dec-19 20:29N 34°09' E 135°09'0 0.0
2014-Dec-19 19:32N 34°09' E 135°09'3 2.7
2014-Dec-19 18:33N 34°09' E 135°05'1311.9
2014-Dec-19 17:26N 34°08' E 134°49'  
2014-Dec-14 13:24N 34°36' E 134°55'7 8.2
2014-Dec-14 12:33N 34°36' E 135°03'10 9.8
2014-Dec-14 11:33N 34°36' E 135°15'9 8.7
2014-Dec-14 10:33N 34°34' E 135°26'0 0.0
2014-Dec-14 04:22N 34°34' E 135°26'5 5.8
2014-Dec-14 03:33N 34°35' E 135°20'2 0.4
2014-Dec-13 23:14N 34°35' E 135°18'0 0.0
2014-Dec-13 22:32N 34°35' E 135°18'0 0.0
2014-Dec-13 21:26N 34°35' E 135°18'0 0.0
2014-Dec-13 20:08N 34°35' E 135°18'0 0.0
2014-Dec-13 19:20N 34°35' E 135°18'0 0.0
2014-Dec-13 18:26N 34°35' E 135°18'1 0.3
2014-Dec-13 13:33N 34°34' E 135°16'1312.7
2014-Dec-13 12:33N 34°37' E 135°01'  

Dump ship's entire track history